Time;durP1;ratioP1;P1;durP2;ratioP2;P2;SDS_P1;SDS_P2;PMS_P1;PMS_P2;Temp;Humidity;BMP_temperature;BMP_pressure;BME280_temperature;BME280_humidity;BME280_pressure;Samples;Min_cycle;Max_cycle;Signal;HPM_P1;HPM_P2
2022/12/23 00:01:14;;;;;;;0.40;0.40;;;;;;;;;;5068901;28;20453;-66
2022/12/23 00:03:40;;;;;;;0.40;0.40;;;;;;;;;;5069221;28;20434;-66
2022/12/23 00:06:10;;;;;;;0.40;0.40;;;;;;;;;;5068327;28;21003;-66
2022/12/23 00:08:36;;;;;;;0.50;0.50;;;;;;;;;;5068922;28;20433;-66
2022/12/23 00:11:04;;;;;;;0.50;0.30;;;;;;;;;;5069832;28;20429;-67
2022/12/23 00:16:14;;;;;;;0.40;0.40;;;;;;;;;;5068712;28;20444;-66
2022/12/23 00:18:41;;;;;;;0.43;0.43;;;;;;;;;;5068374;28;20524;-66
2022/12/23 00:21:08;;;;;;;0.60;0.60;;;;;;;;;;5068410;28;20829;-66
2022/12/23 00:23:35;;;;;;;1.07;0.47;;;;;;;;;;5069049;28;20422;-66
2022/12/23 00:26:01;;;;;;;0.30;0.30;;;;;;;;;;5069646;28;20956;-67
2022/12/23 00:28:28;;;;;;;0.30;0.30;;;;;;;;;;5069015;28;20421;-67
2022/12/23 00:30:55;;;;;;;3.63;0.43;;;;;;;;;;5068484;28;20517;-66
2022/12/23 00:33:22;;;;;;;0.40;0.40;;;;;;;;;;5068969;28;20441;-66
2022/12/23 00:35:48;;;;;;;0.60;0.60;;;;;;;;;;5069867;28;20449;-66
2022/12/23 00:38:15;;;;;;;0.30;0.30;;;;;;;;;;5068494;28;20496;-65
2022/12/23 00:43:25;;;;;;;0.30;0.30;;;;;;;;;;5067736;28;20805;-67
2022/12/23 00:45:51;;;;;;;1.77;0.40;;;;;;;;;;5069121;28;20472;-66
2022/12/23 00:51:02;;;;;;;0.33;0.33;;;;;;;;;;5069463;28;20467;-66
2022/12/23 00:53:28;;;;;;;0.30;0.30;;;;;;;;;;5068223;28;20437;-67
2022/12/23 00:55:54;;;;;;;0.40;0.40;;;;;;;;;;5069248;28;20970;-66
2022/12/23 00:58:20;;;;;;;0.30;0.30;;;;;;;;;;5068905;28;20444;-66
2022/12/23 01:06:17;;;;;;;0.30;0.30;;;;;;;;;;5071987;28;20954;-66
2022/12/23 01:08:43;;;;;;;0.30;0.30;;;;;;;;;;5072410;28;21226;-66
2022/12/23 01:11:11;;;;;;;0.30;0.30;;;;;;;;;;5072931;28;20428;-66
2022/12/23 01:13:37;;;;;;;0.30;0.30;;;;;;;;;;5072693;28;20827;-66
2022/12/23 01:16:05;;;;;;;0.40;0.40;;;;;;;;;;5072273;28;20449;-66
2022/12/23 01:18:31;;;;;;;0.30;0.30;;;;;;;;;;5071489;28;20429;-66
2022/12/23 01:21:00;;;;;;;1.47;0.30;;;;;;;;;;5072426;28;20991;-66
2022/12/23 01:23:26;;;;;;;0.30;0.30;;;;;;;;;;5072424;28;20943;-66
2022/12/23 01:25:56;;;;;;;0.50;0.40;;;;;;;;;;5072836;28;20472;-66
2022/12/23 01:28:22;;;;;;;0.30;0.30;;;;;;;;;;5072219;28;20451;-66
2022/12/23 01:30:48;;;;;;;1.03;0.40;;;;;;;;;;5072022;28;20965;-66
2022/12/23 01:33:14;;;;;;;0.30;0.20;;;;;;;;;;5071986;28;20437;-65
2022/12/23 01:35:40;;;;;;;0.37;0.37;;;;;;;;;;5072394;28;20512;-65
2022/12/23 01:38:06;;;;;;;0.30;0.30;;;;;;;;;;5072340;28;20425;-66
2022/12/23 01:40:36;;;;;;;0.50;0.30;;;;;;;;;;5072200;28;20447;-66
2022/12/23 01:43:02;;;;;;;0.30;0.30;;;;;;;;;;5071619;28;20490;-66
2022/12/23 01:45:29;;;;;;;0.30;0.30;;;;;;;;;;5071932;28;20421;-66
2022/12/23 01:47:55;;;;;;;0.30;0.30;;;;;;;;;;5072331;28;20485;-66
2022/12/23 01:50:24;;;;;;;0.60;0.30;;;;;;;;;;5072044;28;20421;-66
2022/12/23 01:52:56;;;;;;;0.20;0.20;;;;;;;;;;5071926;28;20473;-65
2022/12/23 01:55:24;;;;;;;0.30;0.30;;;;;;;;;;5071904;28;20724;-65
2022/12/23 01:57:51;;;;;;;0.30;0.30;;;;;;;;;;5071345;28;20433;-66
2022/12/23 02:05:46;;;;;;;0.30;0.30;;;;;;;;;;5071500;28;20460;-65
2022/12/23 02:11:01;;;;;;;0.40;0.40;;;;;;;;;;5071778;28;20775;-66
2022/12/23 02:13:34;;;;;;;0.90;0.30;;;;;;;;;;5071385;28;20414;-66
2022/12/23 02:16:17;;;;;;;0.30;0.30;;;;;;;;;;5071508;28;20408;-66
2022/12/23 02:18:46;;;;;;;0.50;0.50;;;;;;;;;;5071101;28;20464;-66
2022/12/23 02:21:18;;;;;;;0.30;0.30;;;;;;;;;;5071429;28;20433;-66
2022/12/23 02:24:09;;;;;;;0.30;0.30;;;;;;;;;;5071048;28;20429;-66
2022/12/23 02:26:53;;;;;;;0.40;0.40;;;;;;;;;;5071515;28;20856;-65
2022/12/23 02:29:45;;;;;;;0.50;0.50;;;;;;;;;;5071052;28;20428;-65
2022/12/23 02:32:17;;;;;;;0.33;0.33;;;;;;;;;;5046901;28;20590;-66
2022/12/23 02:34:53;;;;;;;0.47;0.30;;;;;;;;;;5053409;28;20434;-66
2022/12/23 02:37:38;;;;;;;0.40;0.40;;;;;;;;;;5070982;28;20429;-66
2022/12/23 02:40:30;;;;;;;1.60;0.30;;;;;;;;;;5053276;28;20991;-66
2022/12/23 02:43:04;;;;;;;1.27;0.30;;;;;;;;;;5067717;28;20426;-66
2022/12/23 02:45:39;;;;;;;0.30;0.30;;;;;;;;;;5070723;28;20430;-66
2022/12/23 02:48:12;;;;;;;0.40;0.40;;;;;;;;;;5070935;28;20449;-66
2022/12/23 02:50:40;;;;;;;0.20;0.20;;;;;;;;;;5070788;28;20453;-66
2022/12/23 02:53:26;;;;;;;0.30;0.30;;;;;;;;;;5070475;28;20464;-65
2022/12/23 02:55:53;;;;;;;0.30;0.30;;;;;;;;;;5070331;28;20435;-66
2022/12/23 02:58:22;;;;;;;0.30;0.30;;;;;;;;;;5070188;28;20441;-67
2022/12/23 03:00:49;;;;;;;0.30;0.30;;;;;;;;;;5069143;28;20467;-66
2022/12/23 03:03:15;;;;;;;0.30;0.30;;;;;;;;;;5070125;28;20434;-66
2022/12/23 03:05:44;;;;;;;0.30;0.30;;;;;;;;;;5070706;28;20469;-67
2022/12/23 03:08:13;;;;;;;0.30;0.30;;;;;;;;;;5069399;28;20451;-66
2022/12/23 03:10:42;;;;;;;0.30;0.30;;;;;;;;;;5069613;28;20459;-66
2022/12/23 03:13:18;;;;;;;0.30;0.30;;;;;;;;;;5070266;28;20429;-66
2022/12/23 03:16:10;;;;;;;0.37;0.37;;;;;;;;;;5069584;28;20598;-66
2022/12/23 03:18:51;;;;;;;0.30;0.30;;;;;;;;;;5067732;28;20906;-67
2022/12/23 03:21:19;;;;;;;0.40;0.40;;;;;;;;;;5069730;28;20466;-66
2022/12/23 03:24:12;;;;;;;0.30;0.30;;;;;;;;;;5069776;28;20437;-66
2022/12/23 03:26:48;;;;;;;0.40;0.40;;;;;;;;;;5046650;28;20840;-67
2022/12/23 03:29:20;;;;;;;0.30;0.30;;;;;;;;;;5069093;28;20925;-67
2022/12/23 03:31:47;;;;;;;0.30;0.30;;;;;;;;;;5069044;28;20445;-66
2022/12/23 03:34:15;;;;;;;0.30;0.30;;;;;;;;;;5051811;28;20491;-66
2022/12/23 03:36:45;;;;;;;0.30;0.30;;;;;;;;;;5070302;28;20774;-66
2022/12/23 03:39:13;;;;;;;0.77;0.30;;;;;;;;;;5069233;28;20446;-66
2022/12/23 03:41:42;;;;;;;0.40;0.40;;;;;;;;;;5051974;28;20809;-66
2022/12/23 03:44:20;;;;;;;0.40;0.40;;;;;;;;;;5069091;28;20924;-65
2022/12/23 03:46:49;;;;;;;0.30;0.30;;;;;;;;;;5051840;28;20477;-66
2022/12/23 03:49:17;;;;;;;0.30;0.30;;;;;;;;;;5069849;28;20916;-66
2022/12/23 03:51:47;;;;;;;0.30;0.30;;;;;;;;;;5069590;28;20444;-66
2022/12/23 03:54:17;;;;;;;0.30;0.30;;;;;;;;;;5068916;28;20448;-66
2022/12/23 03:56:46;;;;;;;0.40;0.40;;;;;;;;;;5069990;28;20834;-66
2022/12/23 03:59:20;;;;;;;0.30;0.30;;;;;;;;;;5069022;28;20442;-65
2022/12/23 04:02:05;;;;;;;0.37;0.37;;;;;;;;;;5069436;28;20421;-66
2022/12/23 04:04:34;;;;;;;0.30;0.30;;;;;;;;;;5068917;28;20429;-66
2022/12/23 04:07:04;;;;;;;0.20;0.20;;;;;;;;;;5051546;28;20488;-66
2022/12/23 04:09:30;;;;;;;0.40;0.40;;;;;;;;;;5051634;28;20430;-66
2022/12/23 04:11:57;;;;;;;0.30;0.30;;;;;;;;;;5069534;28;20448;-66
2022/12/23 04:14:23;;;;;;;0.40;0.40;;;;;;;;;;5069165;28;20785;-66
2022/12/23 04:16:52;;;;;;;0.20;0.20;;;;;;;;;;5069673;28;20437;-66
2022/12/23 04:19:18;;;;;;;0.40;0.30;;;;;;;;;;5069998;28;20520;-66
2022/12/23 04:21:44;;;;;;;0.40;0.40;;;;;;;;;;5068872;28;20924;-66
2022/12/23 04:24:10;;;;;;;0.60;0.40;;;;;;;;;;5069011;28;20429;-66
2022/12/23 04:26:36;;;;;;;0.43;0.30;;;;;;;;;;5069589;28;20477;-65
2022/12/23 04:29:02;;;;;;;0.30;0.30;;;;;;;;;;5067998;28;20427;-66
2022/12/23 04:31:28;;;;;;;0.30;0.30;;;;;;;;;;5068458;28;20440;-66
2022/12/23 04:33:54;;;;;;;0.40;0.40;;;;;;;;;;5069133;28;20409;-66
2022/12/23 04:36:20;;;;;;;0.37;0.37;;;;;;;;;;5069167;28;20476;-65
2022/12/23 04:38:46;;;;;;;0.37;0.37;;;;;;;;;;5070341;28;20479;-66
2022/12/23 04:41:12;;;;;;;0.30;0.30;;;;;;;;;;5073650;28;20425;-66
2022/12/23 04:43:38;;;;;;;0.30;0.30;;;;;;;;;;5072796;28;20466;-66
2022/12/23 04:46:04;;;;;;;0.40;0.40;;;;;;;;;;5073389;28;20464;-67
2022/12/23 04:48:30;;;;;;;1.23;0.40;;;;;;;;;;5072674;28;20513;-66
2022/12/23 04:50:56;;;;;;;0.50;0.33;;;;;;;;;;5073127;28;20445;-66
2022/12/23 04:53:22;;;;;;;0.40;0.40;;;;;;;;;;5072670;28;20490;-66
2022/12/23 04:55:51;;;;;;;0.30;0.30;;;;;;;;;;5073305;28;20449;-66
2022/12/23 04:58:20;;;;;;;0.30;0.30;;;;;;;;;;5073246;28;20433;-66
2022/12/23 05:00:46;;;;;;;0.50;0.40;;;;;;;;;;5072407;28;20434;-66
2022/12/23 05:03:12;;;;;;;0.30;0.30;;;;;;;;;;5071312;28;20452;-66
2022/12/23 05:05:44;;;;;;;0.47;0.30;;;;;;;;;;5072288;28;20571;-66
2022/12/23 05:08:10;;;;;;;0.50;0.50;;;;;;;;;;5072738;28;20433;-66
2022/12/23 05:10:36;;;;;;;2.83;1.00;;;;;;;;;;5072843;28;20455;-65
2022/12/23 05:13:02;;;;;;;0.60;0.60;;;;;;;;;;5072046;28;20942;-66
2022/12/23 05:15:28;;;;;;;0.43;0.43;;;;;;;;;;5054632;28;20436;-65
2022/12/23 05:17:54;;;;;;;0.30;0.30;;;;;;;;;;5072374;28;20799;-66
2022/12/23 05:20:20;;;;;;;0.47;0.47;;;;;;;;;;5072646;28;20463;-65
2022/12/23 05:22:46;;;;;;;0.57;0.30;;;;;;;;;;5071624;28;20775;-65
2022/12/23 05:25:12;;;;;;;0.43;0.43;;;;;;;;;;5072659;28;20548;-65
2022/12/23 05:27:38;;;;;;;0.40;0.40;;;;;;;;;;5072380;28;20477;-66
2022/12/23 05:30:04;;;;;;;0.47;0.47;;;;;;;;;;5072063;28;20433;-66
2022/12/23 05:32:30;;;;;;;0.50;0.50;;;;;;;;;;5053589;28;20449;-66
2022/12/23 05:34:56;;;;;;;0.30;0.30;;;;;;;;;;5072738;28;20455;-66
2022/12/23 05:37:22;;;;;;;1.13;0.40;;;;;;;;;;5072422;28;21013;-65
2022/12/23 05:39:48;;;;;;;0.30;0.30;;;;;;;;;;5072450;28;20413;-66
2022/12/23 05:42:18;;;;;;;1.07;0.30;;;;;;;;;;5071823;28;20508;-66
2022/12/23 05:44:44;;;;;;;0.30;0.30;;;;;;;;;;5071338;28;20425;-67
2022/12/23 05:47:10;;;;;;;0.30;0.30;;;;;;;;;;5071345;28;20802;-66
2022/12/23 05:49:36;;;;;;;0.40;0.40;;;;;;;;;;5071951;28;20433;-66
2022/12/23 05:52:02;;;;;;;0.30;0.30;;;;;;;;;;5070643;28;20438;-66
2022/12/23 05:54:27;;;;;;;0.40;0.40;;;;;;;;;;5071227;28;20440;-65
2022/12/23 05:56:53;;;;;;;0.30;0.30;;;;;;;;;;5072280;28;20421;-65
2022/12/23 05:59:19;;;;;;;0.30;0.30;;;;;;;;;;5053161;28;21001;-66
2022/12/23 06:01:45;;;;;;;0.30;0.30;;;;;;;;;;5071585;28;20426;-66
2022/12/23 06:04:11;;;;;;;0.30;0.30;;;;;;;;;;5070677;28;20434;-65
2022/12/23 06:06:37;;;;;;;0.30;0.30;;;;;;;;;;5071455;28;20919;-66
2022/12/23 06:09:03;;;;;;;0.30;0.30;;;;;;;;;;5071895;28;20851;-65
2022/12/23 06:11:29;;;;;;;0.40;0.40;;;;;;;;;;5071817;28;20445;-66
2022/12/23 06:13:55;;;;;;;0.30;0.30;;;;;;;;;;5070598;28;20437;-66
2022/12/23 06:16:21;;;;;;;0.50;0.50;;;;;;;;;;5071022;28;20430;-66
2022/12/23 06:18:47;;;;;;;0.50;0.50;;;;;;;;;;5071031;28;20944;-66
2022/12/23 06:21:13;;;;;;;0.60;0.60;;;;;;;;;;5071645;28;20421;-65
2022/12/23 06:23:39;;;;;;;0.50;0.47;;;;;;;;;;5070776;28;20421;-66
2022/12/23 06:26:05;;;;;;;1.67;1.60;;;;;;;;;;5071568;28;20933;-66
2022/12/23 06:28:31;;;;;;;4.40;4.10;;;;;;;;;;5070395;28;20445;-65
2022/12/23 06:30:57;;;;;;;3.53;3.33;;;;;;;;;;5071149;28;20436;-66
2022/12/23 06:33:24;;;;;;;0.80;0.80;;;;;;;;;;5071099;28;20425;-66
2022/12/23 06:35:50;;;;;;;0.87;0.50;;;;;;;;;;5070448;28;20918;-66
2022/12/23 06:38:16;;;;;;;0.30;0.30;;;;;;;;;;5069889;28;20444;-66
2022/12/23 06:40:42;;;;;;;0.47;0.47;;;;;;;;;;5067548;28;20433;-66
2022/12/23 06:43:10;;;;;;;3.13;3.10;;;;;;;;;;5070662;28;20441;-65
2022/12/23 06:45:36;;;;;;;1.80;1.80;;;;;;;;;;5069538;28;20476;-65
2022/12/23 06:48:02;;;;;;;0.80;0.80;;;;;;;;;;5069938;28;21012;-65
2022/12/23 06:50:28;;;;;;;0.70;0.70;;;;;;;;;;5069852;28;20436;-66
2022/12/23 06:52:53;;;;;;;0.40;0.40;;;;;;;;;;5050315;28;20525;-66
2022/12/23 06:55:20;;;;;;;0.30;0.30;;;;;;;;;;5069889;28;20429;-66
2022/12/23 06:57:45;;;;;;;0.40;0.40;;;;;;;;;;5065517;28;20453;-65
2022/12/23 07:00:12;;;;;;;0.30;0.30;;;;;;;;;;5069442;28;20441;-66
2022/12/23 07:02:38;;;;;;;1.60;0.60;;;;;;;;;;5070077;28;20422;-66
2022/12/23 07:05:05;;;;;;;2.20;0.40;;;;;;;;;;5070228;28;20527;-66
2022/12/23 07:07:32;;;;;;;0.30;0.30;;;;;;;;;;5069417;28;20563;-66
2022/12/23 07:09:58;;;;;;;0.30;0.30;;;;;;;;;;5069416;28;21007;-66
2022/12/23 07:12:24;;;;;;;2.50;0.40;;;;;;;;;;5068606;28;20437;-66
2022/12/23 07:14:50;;;;;;;0.80;0.80;;;;;;;;;;5069634;28;20953;-66
2022/12/23 07:17:16;;;;;;;0.30;0.30;;;;;;;;;;5069585;28;20442;-66
2022/12/23 07:19:42;;;;;;;0.20;0.20;;;;;;;;;;5069869;28;20937;-66
2022/12/23 07:22:09;;;;;;;0.50;0.50;;;;;;;;;;5069272;28;20457;-66
2022/12/23 07:24:35;;;;;;;0.40;0.40;;;;;;;;;;5069578;28;20452;-66
2022/12/23 07:27:01;;;;;;;0.40;0.40;;;;;;;;;;5051573;28;20485;-66
2022/12/23 07:29:27;;;;;;;1.90;0.40;;;;;;;;;;5069167;28;20432;-66
2022/12/23 07:31:53;;;;;;;0.53;0.53;;;;;;;;;;5051477;28;20433;-64
2022/12/23 07:34:19;;;;;;;0.30;0.30;;;;;;;;;;5068802;28;20432;-66
2022/12/23 07:36:45;;;;;;;0.40;0.40;;;;;;;;;;5070053;28;20808;-66
2022/12/23 07:39:11;;;;;;;0.30;0.30;;;;;;;;;;5068574;28;20433;-66
2022/12/23 07:41:36;;;;;;;0.33;0.33;;;;;;;;;;5069593;28;20978;-65
2022/12/23 07:44:02;;;;;;;0.30;0.30;;;;;;;;;;5068978;28;20443;-66
2022/12/23 07:46:28;;;;;;;0.70;0.70;;;;;;;;;;5068754;28;21023;-66
2022/12/23 07:48:54;;;;;;;0.30;0.30;;;;;;;;;;5068915;28;20429;-65
2022/12/23 07:51:20;;;;;;;1.70;0.40;;;;;;;;;;5051444;28;20929;-67
2022/12/23 07:53:50;;;;;;;2.33;0.40;;;;;;;;;;5050898;28;20639;-66
2022/12/23 07:56:16;;;;;;;0.30;0.30;;;;;;;;;;5066328;28;20440;-66
2022/12/23 07:58:42;;;;;;;2.77;0.40;;;;;;;;;;5049835;28;20532;-66
2022/12/23 08:01:08;;;;;;;0.40;0.40;;;;;;;;;;5067354;28;20528;-66
2022/12/23 08:03:34;;;;;;;0.30;0.30;;;;;;;;;;5068600;28;20526;-66
2022/12/23 08:06:04;;;;;;;0.40;0.40;;;;;;;;;;5067709;28;20481;-66
2022/12/23 08:08:31;;;;;;;2.93;0.30;;;;;;;;;;5048916;28;20434;-66
2022/12/23 08:11:01;;;;;;;0.50;0.50;;;;;;;;;;5050314;28;21500;-66
2022/12/23 08:13:27;;;;;;;0.30;0.30;;;;;;;;;;5068110;28;20430;-66
2022/12/23 08:15:57;;;;;;;0.40;0.40;;;;;;;;;;5051440;28;20440;-66
2022/12/23 08:18:23;;;;;;;0.30;0.30;;;;;;;;;;5068792;28;20413;-66
2022/12/23 08:20:53;;;;;;;0.50;0.50;;;;;;;;;;5069142;28;20484;-66
2022/12/23 08:23:19;;;;;;;1.03;0.30;;;;;;;;;;5068976;28;20844;-66
2022/12/23 08:25:45;;;;;;;3.93;0.40;;;;;;;;;;5069388;28;20430;-66
2022/12/23 08:28:11;;;;;;;2.80;0.40;;;;;;;;;;5068672;28;20508;-65
2022/12/23 08:30:37;;;;;;;0.30;0.30;;;;;;;;;;5069709;28;20421;-66
2022/12/23 08:33:03;;;;;;;0.40;0.40;;;;;;;;;;5068775;28;20434;-66
2022/12/23 08:35:29;;;;;;;0.73;0.73;;;;;;;;;;5050420;28;20527;-65
2022/12/23 08:37:55;;;;;;;0.40;0.40;;;;;;;;;;5069331;28;20417;-66
2022/12/23 08:40:21;;;;;;;0.63;0.40;;;;;;;;;;5069999;28;20429;-66
2022/12/23 08:42:47;;;;;;;1.13;0.60;;;;;;;;;;5069192;28;20417;-66
2022/12/23 08:45:14;;;;;;;0.40;0.40;;;;;;;;;;5069241;28;20459;-66
2022/12/23 08:47:40;;;;;;;0.50;0.50;;;;;;;;;;5067077;28;20485;-65
2022/12/23 08:50:06;;;;;;;0.50;0.50;;;;;;;;;;5069580;28;20921;-66
2022/12/23 08:52:32;;;;;;;0.50;0.50;;;;;;;;;;5068948;28;20417;-66
2022/12/23 08:54:58;;;;;;;0.93;0.83;;;;;;;;;;5069217;28;20421;-66
2022/12/23 08:57:24;;;;;;;0.40;0.40;;;;;;;;;;5068948;28;20414;-66
2022/12/23 08:59:50;;;;;;;0.87;0.60;;;;;;;;;;5068341;28;20437;-66
2022/12/23 09:02:16;;;;;;;0.40;0.40;;;;;;;;;;5068719;28;20414;-66
2022/12/23 09:04:42;;;;;;;0.40;0.40;;;;;;;;;;5068972;28;20841;-66
2022/12/23 09:07:08;;;;;;;2.77;0.70;;;;;;;;;;5069025;28;20568;-66
2022/12/23 09:09:35;;;;;;;0.60;0.40;;;;;;;;;;5069233;28;20417;-66
2022/12/23 09:12:01;;;;;;;0.97;0.50;;;;;;;;;;5068451;28;20824;-66
2022/12/23 09:14:27;;;;;;;0.40;0.40;;;;;;;;;;5068508;28;20996;-65
2022/12/23 09:16:53;;;;;;;3.93;0.40;;;;;;;;;;5068929;28;20441;-66
2022/12/23 09:19:19;;;;;;;0.50;0.50;;;;;;;;;;5068955;28;20429;-66
2022/12/23 09:21:45;;;;;;;0.40;0.40;;;;;;;;;;5068418;28;20467;-66
2022/12/23 09:24:11;;;;;;;2.57;0.40;;;;;;;;;;5050333;28;20521;-66
2022/12/23 09:26:38;;;;;;;0.50;0.50;;;;;;;;;;5069986;28;20568;-66
2022/12/23 09:29:04;;;;;;;0.80;0.50;;;;;;;;;;5069649;28;20418;-66
2022/12/23 09:31:30;;;;;;;0.40;0.40;;;;;;;;;;5052814;28;20440;-66
2022/12/23 09:33:56;;;;;;;0.40;0.40;;;;;;;;;;5070414;28;20429;-66
2022/12/23 09:36:22;;;;;;;0.40;0.40;;;;;;;;;;5070292;28;20437;-68
2022/12/23 09:38:58;;;;;;;1.30;0.30;;;;;;;;;;5071154;28;20426;-70
2022/12/23 09:41:33;;;;;;;1.60;0.40;;;;;;;;;;5071229;28;20519;-67
2022/12/23 09:44:14;;;;;;;0.30;0.30;;;;;;;;;;5071238;28;20459;-66
2022/12/23 09:46:48;;;;;;;0.30;0.30;;;;;;;;;;5071489;28;20473;-67
2022/12/23 09:49:16;;;;;;;1.73;0.40;;;;;;;;;;5071013;28;20503;-66
2022/12/23 09:51:42;;;;;;;0.50;0.50;;;;;;;;;;5071117;28;20428;-66
2022/12/23 09:54:15;;;;;;;0.30;0.30;;;;;;;;;;5071567;28;20441;-66
2022/12/23 09:56:47;;;;;;;3.40;0.50;;;;;;;;;;5070863;28;20448;-66
2022/12/23 09:59:28;;;;;;;0.60;0.60;;;;;;;;;;5070626;28;21864;-66
2022/12/23 10:02:21;;;;;;;8.23;0.40;;;;;;;;;;5051713;28;20456;-66
2022/12/23 10:04:53;;;;;;;0.40;0.40;;;;;;;;;;5038977;28;20473;-66
2022/12/23 10:07:27;;;;;;;0.40;0.40;;;;;;;;;;5071364;28;20488;-66
2022/12/23 10:09:54;;;;;;;0.40;0.40;;;;;;;;;;5071053;28;20429;-66
2022/12/23 10:12:29;;;;;;;5.00;0.50;;;;;;;;;;5070640;28;21019;-66
2022/12/23 10:14:57;;;;;;;0.30;0.30;;;;;;;;;;5070579;28;20490;-67
2022/12/23 10:17:28;;;;;;;1.60;0.40;;;;;;;;;;5052049;28;20461;-66
2022/12/23 10:19:56;;;;;;;0.30;0.30;;;;;;;;;;5053209;28;20526;-66
2022/12/23 10:22:29;;;;;;;0.40;0.40;;;;;;;;;;5069215;28;20422;-67
2022/12/23 10:24:57;;;;;;;0.30;0.30;;;;;;;;;;5071585;28;20429;-67
2022/12/23 10:27:34;;;;;;;0.40;0.40;;;;;;;;;;5071111;28;20473;-66
2022/12/23 10:30:20;;;;;;;0.30;0.30;;;;;;;;;;5070447;28;20459;-66
2022/12/23 10:32:54;;;;;;;0.47;0.47;;;;;;;;;;5069075;28;20524;-66
2022/12/23 10:35:37;;;;;;;0.40;0.40;;;;;;;;;;5070807;28;20804;-67
2022/12/23 10:38:10;;;;;;;7.20;0.50;;;;;;;;;;5069911;28;20433;-66
2022/12/23 10:41:02;;;;;;;0.97;0.67;;;;;;;;;;5069235;28;20476;-66
2022/12/23 10:43:45;;;;;;;0.60;0.60;;;;;;;;;;5046962;28;20449;-67
2022/12/23 10:46:21;;;;;;;1.37;1.37;;;;;;;;;;5051213;28;20429;-66
2022/12/23 10:49:03;;;;;;;0.50;0.50;;;;;;;;;;5069652;28;20447;-60
2022/12/23 10:51:32;;;;;;;0.47;0.47;;;;;;;;;;5070395;28;20453;-67
2022/12/23 10:54:04;;;;;;;0.77;0.70;;;;;;;;;;5065767;28;20436;-67
2022/12/23 10:56:30;;;;;;;0.40;0.40;;;;;;;;;;5068778;28;20429;-66
2022/12/23 10:58:57;;;;;;;2.37;0.50;;;;;;;;;;5065897;28;20964;-67
2022/12/23 11:01:24;;;;;;;2.20;0.40;;;;;;;;;;5069196;28;20525;-66
2022/12/23 11:04:00;;;;;;;2.10;0.63;;;;;;;;;;5070424;28;20788;-66
2022/12/23 11:06:26;;;;;;;0.40;0.40;;;;;;;;;;5050275;28;20477;-66
2022/12/23 11:08:52;;;;;;;0.50;0.50;;;;;;;;;;5068853;28;20473;-66
2022/12/23 11:11:18;;;;;;;0.67;0.60;;;;;;;;;;5068168;28;20429;-67
2022/12/23 11:13:45;;;;;;;0.50;0.50;;;;;;;;;;5067939;28;20452;-66
2022/12/23 11:16:25;;;;;;;1.53;1.53;;;;;;;;;;5069014;28;20451;-66
2022/12/23 11:18:58;;;;;;;4.20;4.00;;;;;;;;;;5069097;28;20810;-66
2022/12/23 11:21:25;;;;;;;6.93;6.60;;;;;;;;;;5051686;28;20433;-67
2022/12/23 11:24:06;;;;;;;2.77;2.77;;;;;;;;;;5069635;28;20532;-67
2022/12/23 11:26:32;;;;;;;2.00;2.00;;;;;;;;;;5068773;28;20473;-66
2022/12/23 11:29:02;;;;;;;2.40;2.40;;;;;;;;;;5068503;28;20433;-66
2022/12/23 11:31:34;;;;;;;1.20;1.20;;;;;;;;;;5056538;28;20475;-66
2022/12/23 11:34:00;;;;;;;26.53;13.73;;;;;;;;;;5068238;28;20582;-67
2022/12/23 11:36:27;;;;;;;11.57;9.90;;;;;;;;;;5068090;28;20516;-67
2022/12/23 11:39:11;;;;;;;22.77;12.23;;;;;;;;;;5067776;28;20512;-67
2022/12/23 11:41:46;;;;;;;4.00;3.80;;;;;;;;;;5067668;28;20432;-67
2022/12/23 11:44:18;;;;;;;2.73;2.57;;;;;;;;;;5068921;28;20429;-67
2022/12/23 11:46:44;;;;;;;5.63;5.13;;;;;;;;;;5067883;28;20465;-67
2022/12/23 11:49:13;;;;;;;2.30;1.90;;;;;;;;;;5068206;28;20921;-67
2022/12/23 11:51:39;;;;;;;18.40;11.63;;;;;;;;;;5068501;28;20421;-67
2022/12/23 11:54:05;;;;;;;2.13;2.13;;;;;;;;;;5069510;28;20453;-67
2022/12/23 11:56:38;;;;;;;2.80;2.60;;;;;;;;;;5051421;28;20445;-67
2022/12/23 11:59:17;;;;;;;3.33;3.23;;;;;;;;;;5069287;28;20619;-67
2022/12/23 12:01:46;;;;;;;2.00;0.70;;;;;;;;;;5068955;28;20806;-67
2022/12/23 12:04:17;;;;;;;4.20;0.90;;;;;;;;;;5068617;28;20508;-67
2022/12/23 12:06:45;;;;;;;2.00;2.00;;;;;;;;;;5068523;28;20489;-67
2022/12/23 12:09:13;;;;;;;2.00;1.90;;;;;;;;;;5068779;28;20548;-66
2022/12/23 12:11:43;;;;;;;0.50;0.50;;;;;;;;;;5069564;28;20417;-68
2022/12/23 12:14:18;;;;;;;1.00;1.00;;;;;;;;;;5051413;28;20559;-67
2022/12/23 12:16:53;;;;;;;1.13;1.13;;;;;;;;;;5069778;28;20429;-67
2022/12/23 12:19:31;;;;;;;1.20;1.20;;;;;;;;;;5067706;28;20444;-68
2022/12/23 12:22:01;;;;;;;1.70;1.70;;;;;;;;;;5069196;28;20425;-67
2022/12/23 12:24:47;;;;;;;1.93;1.93;;;;;;;;;;5068834;28;20874;-67
2022/12/23 12:27:14;;;;;;;2.63;2.63;;;;;;;;;;5068459;28;20489;-67
2022/12/23 12:29:40;;;;;;;2.90;2.80;;;;;;;;;;5068163;28;20432;-66
2022/12/23 12:32:10;;;;;;;0.80;0.80;;;;;;;;;;5069159;28;20805;-65
2022/12/23 12:34:39;;;;;;;2.13;1.57;;;;;;;;;;5068763;28;20429;-66
2022/12/23 12:37:11;;;;;;;7.33;6.70;;;;;;;;;;5051393;28;20465;-65
2022/12/23 12:39:42;;;;;;;3.23;2.63;;;;;;;;;;5068371;28;20425;-66
2022/12/23 12:42:14;;;;;;;9.57;5.77;;;;;;;;;;5069259;28;20433;-67
2022/12/23 12:44:45;;;;;;;6.37;5.80;;;;;;;;;;5068297;28;20842;-67
2022/12/23 12:47:24;;;;;;;3.80;1.93;;;;;;;;;;5051109;28;20864;-67
2022/12/23 12:49:58;;;;;;;7.43;6.73;;;;;;;;;;5068949;28;20421;-67
2022/12/23 12:52:25;;;;;;;4.03;3.73;;;;;;;;;;5069514;28;20479;-67
2022/12/23 12:54:57;;;;;;;3.93;3.63;;;;;;;;;;5069311;28;20468;-67
2022/12/23 12:57:24;;;;;;;4.10;3.77;;;;;;;;;;5068679;28;20426;-67
2022/12/23 12:59:53;;;;;;;3.00;2.90;;;;;;;;;;5070152;28;20882;-67
2022/12/23 13:02:37;;;;;;;1.57;1.40;;;;;;;;;;5072926;28;20435;-67
2022/12/23 13:05:22;;;;;;;4.00;2.60;;;;;;;;;;5073018;28;20479;-67
2022/12/23 13:08:03;;;;;;;0.87;0.60;;;;;;;;;;5071074;28;20484;-67
2022/12/23 13:10:55;;;;;;;0.60;0.60;;;;;;;;;;5070881;28;20452;-67
2022/12/23 13:13:30;;;;;;;2.40;1.70;;;;;;;;;;5048928;28;20989;-67
2022/12/23 13:16:11;;;;;;;2.10;1.00;;;;;;;;;;5071299;28;20532;-68
2022/12/23 13:18:55;;;;;;;4.73;0.60;;;;;;;;;;5072238;28;20437;-67
2022/12/23 13:21:21;;;;;;;0.40;0.40;;;;;;;;;;5071179;28;20440;-66
2022/12/23 13:23:49;;;;;;;0.93;0.93;;;;;;;;;;5071221;28;20437;-67
2022/12/23 13:26:34;;;;;;;1.10;1.10;;;;;;;;;;5052443;28;20504;-67
2022/12/23 13:29:19;;;;;;;1.83;1.83;;;;;;;;;;5069643;28;20433;-67
2022/12/23 13:31:45;;;;;;;0.93;0.90;;;;;;;;;;5070476;28;20445;-67
2022/12/23 13:34:23;;;;;;;2.10;1.70;;;;;;;;;;5071521;28;20433;-67
2022/12/23 13:36:56;;;;;;;2.77;2.67;;;;;;;;;;5070560;28;20428;-67
2022/12/23 13:39:37;;;;;;;0.40;0.40;;;;;;;;;;5072609;28;20433;-66
2022/12/23 13:42:04;;;;;;;0.70;0.70;;;;;;;;;;5070916;28;20992;-67
2022/12/23 13:44:31;;;;;;;2.07;0.80;;;;;;;;;;5071671;28;20474;-67
2022/12/23 13:47:06;;;;;;;0.50;0.50;;;;;;;;;;5069306;28;20495;-67
2022/12/23 13:49:49;;;;;;;0.50;0.50;;;;;;;;;;5071591;28;20467;-67
2022/12/23 13:52:19;;;;;;;0.50;0.50;;;;;;;;;;5072193;28;20472;-67
2022/12/23 13:55:04;;;;;;;1.07;0.43;;;;;;;;;;5072334;28;20414;-67
2022/12/23 13:57:30;;;;;;;4.67;0.57;;;;;;;;;;5052810;28;21021;-67
2022/12/23 13:59:58;;;;;;;2.63;0.90;;;;;;;;;;5071566;28;20509;-67
2022/12/23 14:02:44;;;;;;;2.23;1.10;;;;;;;;;;5071150;28;20783;-67
2022/12/23 14:05:28;;;;;;;1.43;1.43;;;;;;;;;;5061039;28;20997;-67
2022/12/23 14:07:55;;;;;;;3.47;1.10;;;;;;;;;;5071079;28;20588;-67
2022/12/23 14:10:22;;;;;;;0.63;0.63;;;;;;;;;;5071226;28;20525;-67
2022/12/23 14:12:50;;;;;;;0.40;0.40;;;;;;;;;;5051848;28;20433;-67
2022/12/23 14:15:38;;;;;;;0.40;0.40;;;;;;;;;;5071717;28;20492;-67
2022/12/23 14:18:24;;;;;;;7.83;1.23;;;;;;;;;;5069277;28;20437;-67
2022/12/23 14:20:54;;;;;;;0.40;0.40;;;;;;;;;;5070987;28;21012;-67
2022/12/23 14:23:26;;;;;;;0.57;0.57;;;;;;;;;;5071481;28;20495;-66
2022/12/23 14:26:11;;;;;;;0.50;0.50;;;;;;;;;;5071792;28;20422;-67
2022/12/23 14:28:42;;;;;;;1.20;1.10;;;;;;;;;;5070240;28;20469;-67
2022/12/23 14:31:27;;;;;;;0.50;0.50;;;;;;;;;;5053505;28;20441;-67
2022/12/23 14:33:53;;;;;;;0.57;0.57;;;;;;;;;;5070857;28;20510;-67
2022/12/23 14:36:24;;;;;;;0.80;0.80;;;;;;;;;;5069129;28;20909;-67
2022/12/23 14:39:08;;;;;;;0.87;0.87;;;;;;;;;;5051823;28;20770;-67
2022/12/23 14:41:39;;;;;;;0.80;0.80;;;;;;;;;;5068180;28;20430;-67
2022/12/23 14:44:18;;;;;;;0.53;0.53;;;;;;;;;;5066815;28;20915;-67
2022/12/23 14:46:44;;;;;;;0.80;0.80;;;;;;;;;;5068910;28;20502;-67
2022/12/23 14:49:21;;;;;;;0.70;0.70;;;;;;;;;;5052706;28;20471;-67
2022/12/23 14:51:50;;;;;;;1.07;0.70;;;;;;;;;;5070276;28;20878;-67
2022/12/23 14:54:16;;;;;;;1.00;1.00;;;;;;;;;;5068884;28;20491;-67
2022/12/23 14:56:42;;;;;;;1.33;1.23;;;;;;;;;;5069677;28;20460;-67
2022/12/23 14:59:23;;;;;;;2.03;0.57;;;;;;;;;;5052511;28;20934;-67
2022/12/23 15:01:51;;;;;;;2.00;1.17;;;;;;;;;;5068540;28;20429;-67
2022/12/23 15:04:22;;;;;;;0.67;0.67;;;;;;;;;;5067256;28;20425;-67
2022/12/23 15:06:51;;;;;;;0.80;0.80;;;;;;;;;;5050356;28;20476;-67
2022/12/23 15:09:28;;;;;;;0.90;0.90;;;;;;;;;;5047768;28;20474;-67
2022/12/23 15:11:55;;;;;;;2.00;1.10;;;;;;;;;;5050156;28;20973;-67
2022/12/23 15:14:34;;;;;;;0.90;0.90;;;;;;;;;;5049785;28;20449;-66
2022/12/23 15:17:00;;;;;;;2.90;1.07;;;;;;;;;;5050099;28;20523;-67
2022/12/23 15:19:26;;;;;;;0.77;0.77;;;;;;;;;;5049566;28;20434;-67
2022/12/23 15:22:06;;;;;;;1.13;0.60;;;;;;;;;;5049564;28;20456;-67